Latest Coastal Weather Observations for Rowley Shoals

IDW60701

Issued at 6:25 pm WST Monday 28 July 2014 (issued every 10 minutes, with the page automatically refreshed every 10 minutes)

About coastal observations | Map of coastal stations | Coastal observations for WA | Marine services | Other Formats
Station Details ID: 200713 Name: ROWLEY SHOALS Lat: -17.52 Lon: 118.95 Height: 0.0 m
Data from the previous 72 hours. | See also: Recent months for locations in Western Australia
Date/Time
WST
Temp

°C
Wind Pressure Rain
since 9am
mm
Weather Cloud Vis
km
Sea
Height
m
Swell
Dir
 
Speed
knots
Gust
knots
hPa Trend Height
m
Period
s
Dir
28/06:00pm - SE 11 13 1015.0 - - - - - - - - -
28/05:00pm - SE 12 14 1014.6 - - - - - - - - -
28/04:30pm - SE 13 15 1014.4 - - - - - - - - -
28/04:00pm - SE 13 14 1014.3 - - - - - - - - -
28/03:30pm - SE 12 13 1014.4 - - - - - - - - -
28/03:00pm - SE 11 13 1014.5 - - - - - - - - -
28/02:30pm - SE 11 13 1014.8 - - - - - - - - -
28/02:00pm - SE 12 13 1015.0 - - - - - - - - -
28/01:30pm - SE 12 14 1015.7 - - - - - - - - -
28/01:00pm - ESE 13 14 1016.2 - - - - - - - - -
28/12:30pm - ESE 14 16 1016.4 - - - - - - - - -
28/12:00pm - ESE 15 18 1016.8 - - - - - - - - -
28/11:30am - ESE 16 19 1017.3 - - - - - - - - -
28/11:00am - ESE 12 13 1017.8 - - - - - - - - -
28/10:30am - ESE 11 14 1018.1 - - - - - - - - -
28/10:00am - ESE 13 15 1018.3 - - - - - - - - -
28/09:30am - SE 10 11 1018.3 - - - - - - - - -
28/09:00am - SE 11 13 1018.5 - - - - - - - - -
28/08:30am - SE 12 14 1018.0 - - - - - - - - -
28/08:00am - SE 15 17 1017.7 - - - - - - - - -
28/07:30am - SSE 16 19 1017.1 - - - - - - - - -
28/07:00am - SSE 18 22 1016.7 - - - - - - - - -
28/06:30am - SSE 17 21 1016.6 - - - - - - - - -
28/06:00am - SSE 13 17 1016.3 - - - - - - - - -
28/05:30am - S 13 19 1016.0 - - - - - - - - -
28/05:00am - S 10 15 1015.9 - - - - - - - - -
28/04:30am - SSE 12 15 1015.8 - - - - - - - - -
28/04:00am - S 10 15 1015.9 - - - - - - - - -
28/03:30am - S 8 12 1015.9 - - - - - - - - -
28/03:00am - S 9 12 1015.9 - - - - - - - - -
28/02:30am - SE 11 13 1016.2 - - - - - - - - -
28/02:00am - SE 13 15 1016.3 - - - - - - - - -
28/01:30am - SSE 10 12 1016.4 - - - - - - - - -
28/01:00am - SSE 10 11 1016.5 - - - - - - - - -
28/12:30am - SSE 7 10 1016.9 - - - - - - - - -
28/12:00am - SSE 8 11 1017.0 - - - - - - - - -
 
Date/Time
WST
Temp

°C
Wind Pressure Rain
since 9am
mm
Weather Cloud Vis
km
Sea
Height
m
Swell
Dir
 
Speed
knots
Gust
knots
hPa Trend Height
m
Period
s
Dir
27/11:30pm - S 7 8 1017.1 - - - - - - - - -
27/11:00pm - S 7 11 1017.2 - - - - - - - - -
27/10:30pm - SSE 10 11 1017.4 - - - - - - - - -
27/10:00pm - SSE 10 11 1017.5 - - - - - - - - -
27/09:30pm - SSE 10 11 1017.5 - - - - - - - - -
27/09:00pm - SSE 11 13 1017.2 - - - - - - - - -
27/08:30pm - SSE 12 13 1017.2 - - - - - - - - -
27/08:00pm - SSE 12 14 1017.1 - - - - - - - - -
27/07:30pm - SSE 13 14 1016.8 - - - - - - - - -
27/07:00pm - SSE 14 15 1016.7 - - - - - - - - -
27/06:30pm - SSE 14 15 1016.5 - - - - - - - - -
27/06:00pm - SSE 13 16 1016.2 - - - - - - - - -
27/05:30pm - SE 14 16 1016.1 - - - - - - - - -
27/05:00pm - SE 15 17 1016.0 - - - - - - - - -
27/04:30pm - SE 15 17 1015.8 - - - - - - - - -
27/04:00pm - SE 15 17 1015.8 - - - - - - - - -
27/03:30pm - SE 14 17 1015.7 - - - - - - - - -
27/03:00pm - SE 15 17 1015.7 - - - - - - - - -
27/02:30pm - SE 16 18 1015.8 - - - - - - - - -
27/02:00pm - SE 17 19 1015.9 - - - - - - - - -
27/01:30pm - SE 17 20 1016.4 - - - - - - - - -
27/01:00pm - SE 18 20 1016.6 - - - - - - - - -
27/12:30pm - SE 18 21 1017.2 - - - - - - - - -
27/12:00pm - SE 19 22 1017.5 - - - - - - - - -
27/11:30am - SE 18 21 1017.9 - - - - - - - - -
27/11:00am - SE 18 20 1018.1 - - - - - - - - -
27/10:30am - SSE 17 20 1018.2 - - - - - - - - -
27/10:00am - SSE 18 21 1018.3 - - - - - - - - -
27/09:30am - SSE 18 22 1018.6 - - - - - - - - -
27/09:00am - SSE 19 21 1018.7 - - - - - - - - -
27/08:30am - SSE 18 21 1018.7 - - - - - - - - -
27/08:00am - SSE 18 21 1018.5 - - - - - - - - -
27/07:30am - SSE 16 19 1018.0 - - - - - - - - -
27/07:00am - SSE 17 18 1017.8 - - - - - - - - -
27/06:30am - SSE 16 18 1017.5 - - - - - - - - -
27/06:00am - SSE 13 15 1017.6 - - - - - - - - -
27/05:30am - SSE 14 16 1017.6 - - - - - - - - -
27/05:00am - SSE 13 15 1017.5 - - - - - - - - -
27/04:30am - SE 13 15 1017.5 - - - - - - - - -
27/04:00am - SSE 12 16 1017.3 - - - - - - - - -
27/03:30am - SSE 13 15 1017.3 - - - - - - - - -
27/03:00am - SSE 12 13 1017.3 - - - - - - - - -
27/02:30am - S 7 9 1017.4 - - - - - - - - -
27/02:00am - S 7 10 1017.6 - - - - - - - - -
27/01:30am - S 7 10 1018.0 - - - - - - - - -
27/01:00am - S 8 12 1018.1 - - - - - - - - -
27/12:30am - SSE 10 13 1018.1 - - - - - - - - -
27/12:00am - SSE 11 13 1018.1 - - - - - - - - -
 
Date/Time
WST
Temp

°C
Wind Pressure Rain
since 9am
mm
Weather Cloud Vis
km
Sea
Height
m
Swell
Dir
 
Speed
knots
Gust
knots
hPa Trend Height
m
Period
s
Dir
26/11:30pm - SSE 10 12 1018.3 - - - - - - - - -
26/11:00pm - S 9 13 1018.3 - - - - - - - - -
26/10:30pm - SSE 9 12 1018.3 - - - - - - - - -
26/10:00pm - SSE 10 14 1018.4 - - - - - - - - -
26/09:30pm - SSE 12 14 1018.2 - - - - - - - - -
26/09:00pm - SSE 11 13 1018.3 - - - - - - - - -
26/08:30pm - SE 11 13 1018.2 - - - - - - - - -
26/08:00pm - SE 12 13 1018.0 - - - - - - - - -
26/07:30pm - ESE 9 12 1018.2 - - - - - - - - -
26/07:00pm - ESE 10 13 1018.0 - - - - - - - - -
26/06:30pm - ESE 10 12 1017.8 - - - - - - - - -
26/06:00pm - ESE 11 14 1017.5 - - - - - - - - -
26/05:30pm - ESE 12 14 1017.1 - - - - - - - - -
26/05:00pm - SE 12 14 1017.0 - - - - - - - - -
26/04:30pm - SE 12 14 1016.9 - - - - - - - - -
26/04:00pm - SE 12 14 1016.9 - - - - - - - - -
26/03:30pm - ESE 9 11 1017.0 - - - - - - - - -
26/03:00pm - SE 9 11 1016.9 - - - - - - - - -
26/02:30pm - ESE 9 11 1017.2 - - - - - - - - -
26/02:00pm - ESE 10 13 1017.3 - - - - - - - - -
26/01:30pm - E 10 13 1017.7 - - - - - - - - -
26/01:00pm - ESE 11 12 1017.7 - - - - - - - - -
26/12:30pm - E 11 13 1018.3 - - - - - - - - -
26/12:00pm - ESE 12 14 1018.5 - - - - - - - - -
26/11:30am - ESE 12 14 1018.8 - - - - - - - - -
26/11:00am - ESE 12 15 1019.1 - - - - - - - - -
26/10:30am - ESE 12 15 1019.5 - - - - - - - - -
26/10:00am - ESE 13 16 1019.7 - - - - - - - - -
26/09:30am - ESE 14 16 1019.6 - - - - - - - - -
26/09:00am - ESE 14 16 1019.5 - - - - - - - - -
26/08:30am - ESE 15 18 1019.1 - - - - - - - - -
26/08:00am - ESE 15 17 1018.9 - - - - - - - - -
26/07:30am - SE 14 16 1018.5 - - - - - - - - -
26/07:00am - SE 14 16 1018.1 - - - - - - - - -
26/06:30am - ESE 14 17 1017.8 - - - - - - - - -
26/06:00am - ESE 13 14 1017.7 - - - - - - - - -
26/05:30am - ESE 12 14 1017.5 - - - - - - - - -
26/05:00am - ESE 11 14 1017.4 - - - - - - - - -
26/04:30am - ESE 11 14 1017.1 - - - - - - - - -
26/04:00am - ESE 11 13 1017.2 - - - - - - - - -
26/03:30am - ESE 10 13 1017.2 - - - - - - - - -
26/03:00am - ESE 10 12 1017.3 - - - - - - - - -
26/02:30am - ESE 10 12 1017.4 - - - - - - - - -
26/02:00am - ESE 11 13 1017.5 - - - - - - - - -
26/01:30am - ESE 12 14 1017.5 - - - - - - - - -
26/01:00am - ESE 12 15 1017.7 - - - - - - - - -
26/12:30am - ESE 11 14 1017.8 - - - - - - - - -
26/12:00am - ESE 11 12 1018.0 - - - - - - - - -
 
Date/Time
WST
Temp

°C
Wind Pressure Rain
since 9am
mm
Weather Cloud Vis
km
Sea
Height
m
Swell
Dir
 
Speed
knots
Gust
knots
hPa Trend Height
m
Period
s
Dir
25/11:30pm - ESE 12 15 1018.0 - - - - - - - - -
25/11:00pm - ESE 11 14 1018.0 - - - - - - - - -
25/10:30pm - SE 11 13 1018.1 - - - - - - - - -
25/10:00pm - SE 13 15 1018.1 - - - - - - - - -
25/09:30pm - SE 13 17 1018.0 - - - - - - - - -
25/09:00pm - SE 14 15 1017.9 - - - - - - - - -
25/08:30pm - SE 13 15 1017.9 - - - - - - - - -
25/08:00pm - SE 13 16 1017.7 - - - - - - - - -
25/07:30pm - SE 12 15 1017.5 - - - - - - - - -
25/07:00pm - SE 12 15 1017.2 - - - - - - - - -
25/06:30pm - ESE 12 14 1017.0 - - - - - - - - -

Other Formats:

Comma delimited format used in spreadsheet applications
http://www.bom.gov.au/fwo/IDW60701/IDW60701.94207.axf

JavaScript Object Notation format (JSON) in row-major order
http://www.bom.gov.au/fwo/IDW60701/IDW60701.94207.json